Time;durP1;ratioP1;P1;durP2;ratioP2;P2;SDS_P1;SDS_P2;PMS_P1;PMS_P2;Temp;Humidity;BMP_temperature;BMP_pressure;BME280_temperature;BME280_humidity;BME280_pressure;Samples;Min_cycle;Max_cycle;Signal;HPM_P1;HPM_P2
2023/09/28 00:00:35;;;;;;;5.77;5.60;;;;;;;18.15;73.79;101091.22;5054599;28;20179;-69
2023/09/28 00:02:45;;;;;;;5.30;5.30;;;;;;;18.19;74.09;101102.50;5054300;28;20195;-69
2023/09/28 00:05:13;;;;;;;7.50;7.37;;;;;;;18.22;73.39;101099.41;5054244;28;20183;-69
2023/09/28 00:07:40;;;;;;;6.63;6.53;;;;;;;18.20;73.57;101090.66;5054976;28;20187;-69
2023/09/28 00:10:11;;;;;;;5.70;5.50;;;;;;;18.21;73.45;101090.44;5054616;28;20195;-68
2023/09/28 00:12:43;;;;;;;6.00;5.80;;;;;;;18.22;74.05;101083.16;5054677;28;20175;-69
2023/09/28 00:15:10;;;;;;;5.00;4.90;;;;;;;18.13;74.28;101081.63;5054076;28;20272;-69
2023/09/28 00:17:40;;;;;;;6.90;4.93;;;;;;;18.08;75.11;101092.16;5054265;28;20617;-69
2023/09/28 00:20:18;;;;;;;5.37;4.83;;;;;;;18.02;75.51;101091.09;5053873;28;20217;-69
2023/09/28 00:22:46;;;;;;;6.27;6.03;;;;;;;17.97;75.34;101098.09;5054225;28;20632;-69
2023/09/28 00:25:16;;;;;;;5.50;5.10;;;;;;;17.93;76.19;101100.34;5054145;28;20198;-69
2023/09/28 00:27:44;;;;;;;6.10;5.63;;;;;;;17.93;75.93;101108.47;5053782;28;20191;-69
2023/09/28 00:30:18;;;;;;;5.37;5.23;;;;;;;17.94;76.59;101107.44;5053706;28;20191;-69
2023/09/28 00:32:55;;;;;;;5.10;4.77;;;;;;;17.85;76.52;101111.28;5054057;28;20241;-69
2023/09/28 00:35:23;;;;;;;5.03;5.03;;;;;;;17.82;76.95;101108.13;5052395;28;20211;-69
2023/09/28 00:37:50;;;;;;;5.07;4.87;;;;;;;17.80;76.44;101103.72;5052411;28;20195;-69
2023/09/28 00:40:27;;;;;;;5.13;4.77;;;;;;;17.80;76.97;101108.28;5053534;28;20256;-69
2023/09/28 00:42:55;;;;;;;5.73;5.63;;;;;;;17.76;76.74;101102.44;5054185;28;20183;-69
2023/09/28 00:45:23;;;;;;;5.23;5.10;;;;;;;17.72;77.06;101103.00;5053512;28;20175;-69
2023/09/28 00:47:56;;;;;;;5.23;5.13;;;;;;;17.74;77.06;101103.63;5052245;28;20562;-69
2023/09/28 00:50:23;;;;;;;6.53;5.93;;;;;;;17.72;76.93;101101.13;5053727;28;20697;-69
2023/09/28 00:52:54;;;;;;;5.43;5.20;;;;;;;17.69;76.79;101106.94;5053700;28;20195;-69
2023/09/28 00:55:23;;;;;;;5.90;5.23;;;;;;;17.69;76.66;101100.69;5053648;28;20195;-69
2023/09/28 00:57:50;;;;;;;5.70;5.37;;;;;;;17.72;76.55;101108.41;5051679;28;20199;-69
2023/09/28 01:00:26;;;;;;;4.67;4.67;;;;;;;17.69;77.07;101098.81;5052033;28;20198;-69
2023/09/28 01:02:56;;;;;;;5.30;4.93;;;;;;;17.69;76.91;101097.97;5053391;28;20197;-70
2023/09/28 01:05:40;;;;;;;5.20;5.10;;;;;;;17.70;76.65;101102.34;5053517;28;20245;-70
2023/09/28 01:08:18;;;;;;;5.37;5.27;;;;;;;17.69;76.58;101103.38;5053499;28;20207;-70
2023/09/28 01:10:45;;;;;;;4.70;4.60;;;;;;;17.65;76.69;101092.09;5051883;28;20222;-69
2023/09/28 01:13:15;;;;;;;4.70;4.60;;;;;;;17.65;77.13;101080.47;5053157;28;20233;-69
2023/09/28 01:15:48;;;;;;;5.13;5.03;;;;;;;17.60;77.46;101078.31;5053182;28;20221;-69
2023/09/28 01:18:16;;;;;;;5.07;4.87;;;;;;;17.58;77.24;101093.88;5053674;28;20182;-69
2023/09/28 01:20:48;;;;;;;12.90;5.30;;;;;;;17.68;76.99;101099.00;5053007;28;20207;-69
2023/09/28 01:23:15;;;;;;;5.60;5.13;;;;;;;17.69;77.09;101106.94;5053082;28;20626;-69
2023/09/28 01:25:45;;;;;;;4.73;4.63;;;;;;;17.67;77.17;101102.72;5053255;28;20551;-69
2023/09/28 01:28:11;;;;;;;5.43;5.33;;;;;;;17.66;77.23;101103.75;5051749;28;20210;-69
2023/09/28 01:30:38;;;;;;;5.17;5.07;;;;;;;17.72;76.73;101116.53;5052894;28;20215;-69
2023/09/28 01:33:09;;;;;;;4.83;4.73;;;;;;;17.72;76.69;101108.41;5051716;28;20290;-69
2023/09/28 01:35:35;;;;;;;6.53;4.67;;;;;;;17.71;76.62;101114.84;5052845;28;20207;-69
2023/09/28 01:38:23;;;;;;;4.30;4.30;;;;;;;17.71;76.35;101112.97;5052947;28;20184;-69
2023/09/28 01:40:50;;;;;;;4.77;4.70;;;;;;;17.73;76.16;101107.38;5053185;28;20732;-69
2023/09/28 01:43:16;;;;;;;4.67;4.57;;;;;;;17.75;75.88;101106.16;5051608;28;20627;-69
2023/09/28 01:45:44;;;;;;;4.63;4.53;;;;;;;17.74;75.90;101098.22;5052829;28;20179;-69
2023/09/28 01:48:11;;;;;;;5.30;5.17;;;;;;;17.71;76.48;101110.28;5052813;28;20192;-69
2023/09/28 01:50:37;;;;;;;4.70;4.60;;;;;;;17.65;76.64;101099.38;5051458;28;20211;-69
2023/09/28 01:53:04;;;;;;;4.30;4.30;;;;;;;17.63;76.49;101109.53;5052763;28;20217;-69
2023/09/28 01:55:31;;;;;;;4.17;4.07;;;;;;;17.62;77.28;101110.56;5051745;28;20215;-69
2023/09/28 01:57:59;;;;;;;4.10;4.10;;;;;;;17.60;77.04;101108.06;5051454;28;20195;-69
2023/09/28 02:00:26;;;;;;;4.57;4.37;;;;;;;17.63;76.79;101106.81;5051570;28;20264;-69
2023/09/28 02:02:55;;;;;;;5.90;4.87;;;;;;;17.62;76.56;101105.16;5052889;28;20190;-69
2023/09/28 02:05:22;;;;;;;4.60;4.50;;;;;;;17.60;76.48;101105.34;5052923;28;20279;-69
2023/09/28 02:07:50;;;;;;;4.97;4.77;;;;;;;17.60;76.64;101104.50;5051377;28;20187;-69
2023/09/28 02:10:19;;;;;;;4.67;4.30;;;;;;;17.58;76.55;101109.25;5055873;28;20187;-69
2023/09/28 02:12:45;;;;;;;4.70;4.60;;;;;;;17.55;76.54;101102.34;5055114;28;20203;-69
2023/09/28 02:15:15;;;;;;;7.10;5.33;;;;;;;17.54;76.96;101103.34;5056530;28;20257;-69
2023/09/28 02:17:43;;;;;;;5.17;4.97;;;;;;;17.52;76.63;101099.16;5056910;28;20535;-69
2023/09/28 02:20:15;;;;;;;4.40;4.40;;;;;;;17.54;77.17;101100.66;5056153;28;20200;-69
2023/09/28 02:22:44;;;;;;;5.27;5.17;;;;;;;17.51;77.01;101103.75;5054965;28;20635;-69
2023/09/28 02:25:17;;;;;;;4.93;4.90;;;;;;;17.38;77.70;101102.72;5056440;28;20554;-69
2023/09/28 02:27:45;;;;;;;5.53;5.23;;;;;;;17.34;78.25;101102.25;5056433;28;20207;-69
2023/09/28 02:30:14;;;;;;;5.00;5.00;;;;;;;17.36;78.23;101101.03;5054703;28;20198;-69
2023/09/28 02:32:43;;;;;;;6.70;6.17;;;;;;;17.38;77.98;101100.84;5054748;28;20191;-69
2023/09/28 02:35:13;;;;;;;5.73;5.53;;;;;;;17.43;77.75;101105.69;5056156;28;20227;-69
2023/09/28 02:37:44;;;;;;;6.43;5.67;;;;;;;17.39;78.20;101116.06;5056465;28;20230;-69
2023/09/28 02:40:12;;;;;;;5.13;5.03;;;;;;;17.41;77.91;101110.44;5056404;28;20199;-69
2023/09/28 02:42:39;;;;;;;5.77;5.57;;;;;;;17.43;77.72;101111.09;5055839;28;20245;-69
2023/09/28 02:45:10;;;;;;;6.37;5.83;;;;;;;17.41;77.63;101110.44;5054565;28;20187;-69
2023/09/28 02:47:42;;;;;;;6.20;5.97;;;;;;;17.41;77.91;101111.28;5054771;28;20179;-69
2023/09/28 02:50:09;;;;;;;6.63;6.40;;;;;;;17.43;77.72;101124.63;5054356;28;20610;-69
2023/09/28 02:52:46;;;;;;;5.30;5.10;;;;;;;17.48;77.25;101131.16;5054373;28;20191;-69
2023/09/28 02:55:13;;;;;;;5.50;5.30;;;;;;;17.53;76.34;101117.88;5055816;28;20217;-69
2023/09/28 02:57:41;;;;;;;5.40;5.07;;;;;;;17.56;75.82;101130.22;5055804;28;20195;-69
2023/09/28 03:02:53;;;;;;;4.67;4.57;;;;;;;17.65;75.22;101132.63;5055749;28;20183;-69
2023/09/28 03:05:23;;;;;;;5.60;5.30;;;;;;;17.67;74.78;101135.16;5055438;28;20171;-69
2023/09/28 03:07:50;;;;;;;5.20;5.10;;;;;;;17.69;74.43;101133.97;5055930;28;20168;-69
2023/09/28 03:10:17;;;;;;;5.00;4.87;;;;;;;17.65;74.28;101134.53;5053962;28;20326;-69
2023/09/28 03:12:47;;;;;;;6.00;5.53;;;;;;;17.63;74.33;101139.28;5055521;28;20195;-69
2023/09/28 03:15:16;;;;;;;5.47;5.07;;;;;;;17.62;74.47;101143.84;5055401;28;20211;-69
2023/09/28 03:17:42;;;;;;;5.40;5.30;;;;;;;17.58;74.31;101147.09;5055192;28;20183;-69
2023/09/28 03:20:13;;;;;;;4.60;4.50;;;;;;;17.58;74.73;101137.13;5053477;28;20191;-69
2023/09/28 03:22:41;;;;;;;5.37;5.00;;;;;;;17.59;74.23;101144.22;5053875;28;20195;-69
2023/09/28 03:25:11;;;;;;;4.77;4.67;;;;;;;17.62;73.84;101153.81;5053741;28;20731;-69
2023/09/28 03:27:39;;;;;;;4.70;4.50;;;;;;;17.70;73.50;101156.41;5054996;28;20284;-69
2023/09/28 03:30:10;;;;;;;4.73;4.50;;;;;;;17.82;72.57;101159.50;5055406;28;20191;-69
2023/09/28 03:32:40;;;;;;;3.97;3.70;;;;;;;18.05;71.33;101171.88;5055186;28;20179;-69
2023/09/28 03:35:09;;;;;;;4.73;4.30;;;;;;;18.07;71.49;101169.00;5055128;28;20206;-70
2023/09/28 03:37:36;;;;;;;4.33;4.03;;;;;;;18.14;71.03;101165.31;5055056;28;20206;-70
2023/09/28 03:40:10;;;;;;;9.27;4.50;;;;;;;18.28;70.25;101169.03;5054701;28;20559;-69
2023/09/28 03:42:41;;;;;;;6.03;4.93;;;;;;;18.38;69.48;101177.66;5055459;28;20171;-69
2023/09/28 03:45:09;;;;;;;4.43;4.37;;;;;;;18.35;69.43;101172.63;5054928;28;20171;-70
2023/09/28 03:47:37;;;;;;;4.60;4.30;;;;;;;18.38;69.50;101174.13;5054842;28;20226;-70
2023/09/28 03:50:07;;;;;;;4.87;4.53;;;;;;;18.36;69.86;101174.31;5055011;28;20266;-69
2023/09/28 03:52:40;;;;;;;6.13;4.80;;;;;;;18.45;69.86;101177.75;5054993;28;20275;-69
2023/09/28 03:55:11;;;;;;;5.33;4.90;;;;;;;18.42;69.83;101181.66;5054681;28;20187;-69
2023/09/28 03:57:39;;;;;;;4.67;4.27;;;;;;;18.38;70.04;101177.66;5054445;28;20168;-69
2023/09/28 04:00:06;;;;;;;4.97;4.77;;;;;;;18.45;69.31;101183.16;5054213;28;20675;-69
2023/09/28 04:02:44;;;;;;;4.23;4.23;;;;;;;18.40;69.84;101191.88;5054747;28;20176;-69
2023/09/28 04:05:14;;;;;;;4.37;4.37;;;;;;;18.33;70.22;101190.13;5054503;28;20620;-69
2023/09/28 04:07:41;;;;;;;5.17;4.97;;;;;;;18.33;70.56;101192.81;5054466;28;20191;-69
2023/09/28 04:10:10;;;;;;;5.30;5.23;;;;;;;18.24;70.50;101194.81;5054025;28;20217;-69
2023/09/28 04:12:36;;;;;;;4.33;4.07;;;;;;;18.17;70.53;101185.75;5054332;28;20199;-69
2023/09/28 04:15:04;;;;;;;4.13;4.03;;;;;;;18.09;71.38;101186.69;5054124;28;20199;-69
2023/09/28 04:17:30;;;;;;;4.30;4.30;;;;;;;18.01;71.26;101192.22;5053979;28;20186;-69
2023/09/28 04:19:57;;;;;;;5.03;4.63;;;;;;;17.93;71.86;101205.00;5053958;28;20725;-69
2023/09/28 04:22:24;;;;;;;4.57;4.37;;;;;;;17.87;71.87;101205.75;5054111;28;20628;-69
2023/09/28 04:24:50;;;;;;;4.17;4.17;;;;;;;17.78;72.42;101210.41;5053900;28;20191;-69
2023/09/28 04:27:16;;;;;;;5.80;4.67;;;;;;;17.69;72.56;101211.56;5053804;28;20241;-69
2023/09/28 04:29:43;;;;;;;4.83;4.80;;;;;;;17.60;73.15;101216.22;5053704;28;20187;-70
2023/09/28 04:32:09;;;;;;;4.57;4.27;;;;;;;17.55;73.25;101210.47;5053073;28;20269;-69
2023/09/28 04:34:36;;;;;;;5.20;5.00;;;;;;;17.52;73.66;101221.69;5053687;28;20210;-70
2023/09/28 04:37:03;;;;;;;4.83;4.37;;;;;;;17.49;73.97;101218.47;5053558;28;20195;-70
2023/09/28 04:39:29;;;;;;;4.67;4.67;;;;;;;17.46;74.15;101213.44;5053481;28;20643;-70
2023/09/28 04:41:58;;;;;;;4.83;4.73;;;;;;;17.42;74.45;101215.69;5053516;28;20585;-69
2023/09/28 04:44:24;;;;;;;4.97;4.57;;;;;;;17.40;74.97;101214.19;5053822;28;20566;-69
2023/09/28 04:46:51;;;;;;;5.10;4.70;;;;;;;17.36;74.81;101211.84;5053534;28;20179;-70
2023/09/28 04:49:18;;;;;;;5.17;4.97;;;;;;;17.36;74.75;101213.69;5053740;28;20182;-70
2023/09/28 04:51:45;;;;;;;5.47;5.03;;;;;;;17.33;74.90;101214.06;5053293;28;20215;-69
2023/09/28 04:54:11;;;;;;;6.40;4.83;;;;;;;17.33;75.49;101220.31;5053426;28;20198;-69
2023/09/28 04:56:38;;;;;;;6.43;5.97;;;;;;;17.32;75.17;101229.44;5053254;28;20206;-69
2023/09/28 04:59:04;;;;;;;4.93;4.63;;;;;;;17.32;75.50;101224.03;5053299;28;20686;-69
2023/09/28 05:01:31;;;;;;;4.17;4.17;;;;;;;17.32;75.66;101228.59;5053688;28;20768;-69
2023/09/28 05:03:57;;;;;;;6.30;5.30;;;;;;;17.32;75.42;101232.16;5053216;28;20188;-69
2023/09/28 05:06:24;;;;;;;5.50;5.40;;;;;;;17.31;75.61;101235.88;5053421;28;20179;-70
2023/09/28 05:08:50;;;;;;;5.40;5.30;;;;;;;17.29;75.86;101240.63;5053141;28;20655;-70
2023/09/28 05:11:17;;;;;;;5.43;5.17;;;;;;;17.29;75.55;101246.03;5053365;28;20207;-69
2023/09/28 05:13:43;;;;;;;5.30;5.13;;;;;;;17.27;75.62;101248.06;5053543;28;20219;-69
2023/09/28 05:16:10;;;;;;;5.37;4.97;;;;;;;17.27;75.44;101249.97;5053279;28;20736;-69
2023/09/28 05:18:36;;;;;;;5.03;4.83;;;;;;;17.24;75.74;101251.16;5053585;28;20606;-69
2023/09/28 05:21:03;;;;;;;5.33;5.00;;;;;;;17.20;75.69;101247.13;5053207;28;20211;-69
2023/09/28 05:23:29;;;;;;;5.30;5.00;;;;;;;17.16;76.15;101244.97;5053237;28;20701;-69
2023/09/28 05:25:56;;;;;;;4.87;4.80;;;;;;;17.11;76.39;101247.38;5053789;28;20183;-69
2023/09/28 05:28:22;;;;;;;4.83;4.73;;;;;;;17.07;76.33;101237.94;5052952;28;20187;-70
2023/09/28 05:30:49;;;;;;;5.47;5.00;;;;;;;17.00;76.81;101235.16;5053170;28;20214;-69
2023/09/28 05:33:16;;;;;;;4.87;4.67;;;;;;;16.95;77.76;101226.75;5052879;28;20187;-69
2023/09/28 05:35:43;;;;;;;4.50;4.50;;;;;;;16.86;78.05;101230.50;5052781;28;20206;-69
2023/09/28 05:38:10;;;;;;;4.90;4.60;;;;;;;16.77;78.00;101229.72;5053375;28;20225;-69
2023/09/28 05:40:36;;;;;;;5.47;5.37;;;;;;;16.75;78.82;101225.53;5052754;28;20761;-69
2023/09/28 05:43:03;;;;;;;6.70;4.93;;;;;;;16.70;79.22;101226.09;5053936;28;20190;-69
2023/09/28 05:45:32;;;;;;;8.20;4.80;;;;;;;16.66;79.56;101222.06;5057144;28;20709;-69
2023/09/28 05:47:58;;;;;;;5.13;4.93;;;;;;;16.65;79.68;101228.47;5056757;28;20194;-69
2023/09/28 05:50:24;;;;;;;5.33;5.03;;;;;;;16.60;79.95;101244.34;5056694;28;20217;-69
2023/09/28 05:52:52;;;;;;;5.83;5.70;;;;;;;16.61;80.12;101256.00;5056743;28;20187;-71
2023/09/28 05:55:19;;;;;;;5.93;5.73;;;;;;;16.63;80.11;101253.97;5056934;28;20184;-70
2023/09/28 05:57:46;;;;;;;6.00;5.50;;;;;;;16.65;79.76;101271.66;5057110;28;20341;-70
2023/09/28 06:00:13;;;;;;;6.03;5.73;;;;;;;16.66;79.04;101288.72;5056504;28;20214;-69
2023/09/28 06:02:39;;;;;;;5.83;5.33;;;;;;;16.56;79.30;101297.00;5056435;28;20189;-71
2023/09/28 06:05:07;;;;;;;6.17;6.07;;;;;;;16.49;79.55;101297.88;5056683;28;20694;-70
2023/09/28 06:07:33;;;;;;;5.37;5.27;;;;;;;16.35;80.20;101302.16;5056399;28;20194;-70
2023/09/28 06:09:59;;;;;;;4.87;4.87;;;;;;;16.32;80.36;101297.97;5056379;28;20187;-70
2023/09/28 06:12:26;;;;;;;5.73;5.63;;;;;;;16.37;80.47;101300.13;5056178;28;20346;-69
2023/09/28 06:14:52;;;;;;;6.80;6.60;;;;;;;16.50;80.66;101313.91;5056233;28;20199;-69
2023/09/28 06:17:19;;;;;;;12.60;7.83;;;;;;;16.56;80.64;101313.19;5056205;28;20207;-71
2023/09/28 06:19:46;;;;;;;8.83;7.97;;;;;;;16.68;80.38;101316.34;5056505;28;20574;-71
2023/09/28 06:22:24;;;;;;;7.43;7.13;;;;;;;16.94;79.19;101332.25;5056761;28;20203;-70
2023/09/28 06:24:50;;;;;;;7.97;6.57;;;;;;;17.05;79.31;101327.31;5056578;28;20194;-70
2023/09/28 06:27:17;;;;;;;7.73;6.37;;;;;;;17.10;78.64;101332.97;5056412;28;20237;-70
2023/09/28 06:29:44;;;;;;;7.77;7.03;;;;;;;17.16;78.70;101323.31;5056415;28;20191;-70
2023/09/28 06:32:10;;;;;;;11.43;7.23;;;;;;;17.22;78.93;101319.91;5056020;28;20558;-69
2023/09/28 06:34:37;;;;;;;20.33;7.67;;;;;;;17.31;78.15;101324.25;5055895;28;20183;-69
2023/09/28 06:37:03;;;;;;;10.40;7.30;;;;;;;17.36;78.25;101319.97;5055862;28;20207;-69
2023/09/28 06:39:30;;;;;;;14.27;7.20;;;;;;;17.39;78.12;101326.88;5055782;28;20239;-69
2023/09/28 06:41:56;;;;;;;14.63;6.93;;;;;;;17.47;78.40;101334.06;5055764;28;20276;-69
2023/09/28 06:44:38;;;;;;;7.97;7.23;;;;;;;17.59;77.96;101332.66;5056293;28;20646;-69
2023/09/28 06:47:04;;;;;;;8.03;7.67;;;;;;;17.60;77.82;101328.94;5055768;28;20183;-69
2023/09/28 06:49:32;;;;;;;7.67;7.27;;;;;;;17.61;78.19;101338.72;5055723;28;20216;-69
2023/09/28 06:51:59;;;;;;;8.07;7.50;;;;;;;17.61;78.14;101341.44;5055838;28;20215;-69
2023/09/28 06:54:25;;;;;;;7.87;7.47;;;;;;;17.68;78.51;101353.19;5055226;28;20188;-69
2023/09/28 06:56:51;;;;;;;11.97;8.23;;;;;;;17.80;78.16;101355.28;5055410;28;20207;-69
2023/09/28 06:59:18;;;;;;;13.57;8.90;;;;;;;17.83;78.04;101362.16;5055544;28;20191;-71
2023/09/28 07:01:44;;;;;;;7.47;7.20;;;;;;;17.88;78.15;101365.16;5055435;28;20702;-69
2023/09/28 07:04:11;;;;;;;28.40;8.33;;;;;;;17.88;78.77;101367.03;5055428;28;20233;-69
2023/09/28 07:06:37;;;;;;;8.80;7.93;;;;;;;17.95;78.55;101368.81;5055633;28;20183;-69
2023/09/28 07:09:05;;;;;;;8.77;7.83;;;;;;;18.06;77.30;101372.94;5055299;28;20237;-71
2023/09/28 07:11:32;;;;;;;9.00;8.33;;;;;;;18.07;78.03;101361.09;5055205;28;20265;-70
2023/09/28 07:13:58;;;;;;;11.93;8.33;;;;;;;18.17;77.75;101367.91;5055054;28;20659;-70
2023/09/28 07:16:25;;;;;;;9.30;8.50;;;;;;;18.25;77.26;101370.53;5055668;28;20643;-70
2023/09/28 07:18:51;;;;;;;10.70;8.47;;;;;;;18.34;77.60;101359.59;5055484;28;20206;-70
2023/09/28 07:21:18;;;;;;;9.87;7.50;;;;;;;18.23;78.01;101347.41;5055066;28;20211;-70
2023/09/28 07:23:45;;;;;;;7.70;7.27;;;;;;;18.29;78.47;101359.34;5055060;28;20675;-70
2023/09/28 07:26:14;;;;;;;9.20;8.37;;;;;;;18.35;77.81;101372.97;5055109;28;20171;-71
2023/09/28 07:28:41;;;;;;;9.10;8.40;;;;;;;18.47;77.50;101367.91;5055208;28;20651;-70
2023/09/28 07:31:07;;;;;;;8.30;7.60;;;;;;;18.52;78.01;101373.63;5054888;28;20203;-70
2023/09/28 07:33:35;;;;;;;8.27;7.83;;;;;;;18.57;77.51;101371.22;5055195;28;20189;-70
2023/09/28 07:36:05;;;;;;;11.47;7.80;;;;;;;18.64;77.30;101382.97;5054729;28;20681;-70
2023/09/28 07:38:32;;;;;;;8.30;7.77;;;;;;;18.67;77.11;101383.44;5054835;28;20176;-70
2023/09/28 07:41:00;;;;;;;22.63;8.70;;;;;;;18.77;77.04;101374.19;5054670;28;20218;-69
2023/09/28 07:43:27;;;;;;;8.47;7.70;;;;;;;18.79;76.09;101380.25;5055221;28;20592;-70
2023/09/28 07:45:54;;;;;;;22.27;8.80;;;;;;;18.86;75.89;101382.03;5054678;28;20187;-71
2023/09/28 07:48:20;;;;;;;9.03;8.23;;;;;;;18.90;75.95;101394.16;5054595;28;20578;-70
2023/09/28 07:50:48;;;;;;;19.47;8.20;;;;;;;18.91;76.09;101405.84;5054436;28;20558;-70
2023/09/28 07:53:14;;;;;;;7.27;6.57;;;;;;;18.91;75.76;101411.25;5054561;28;20225;-70
2023/09/28 07:55:41;;;;;;;7.80;7.23;;;;;;;19.00;75.75;101408.25;5054490;28;20682;-70
2023/09/28 07:58:08;;;;;;;7.27;6.67;;;;;;;18.99;74.67;101409.28;5054562;28;20217;-70
2023/09/28 08:00:52;;;;;;;15.97;6.97;;;;;;;19.02;74.44;101408.91;5054167;28;20273;-70
2023/09/28 08:03:19;;;;;;;7.50;6.80;;;;;;;19.06;74.19;101409.34;5054608;28;20180;-70
2023/09/28 08:05:45;;;;;;;11.10;6.60;;;;;;;19.10;73.99;101419.63;5054454;28;20245;-70
2023/09/28 08:08:12;;;;;;;6.43;5.93;;;;;;;19.11;74.32;101426.72;5053953;28;20233;-71
2023/09/28 08:10:44;;;;;;;10.90;6.50;;;;;;;19.09;74.09;101436.09;5054277;28;20560;-70
2023/09/28 08:13:10;;;;;;;8.63;7.40;;;;;;;19.15;74.84;101430.75;5054397;28;20187;-70
2023/09/28 08:15:41;;;;;;;8.47;7.83;;;;;;;19.10;75.25;101429.63;5054209;28;20286;-70
2023/09/28 08:18:08;;;;;;;7.33;6.63;;;;;;;19.05;75.06;101421.25;5054129;28;20290;-70
2023/09/28 08:20:35;;;;;;;16.53;8.10;;;;;;;19.12;75.34;101419.44;5054457;28;20290;-67
2023/09/28 08:23:04;;;;;;;6.77;6.20;;;;;;;19.10;73.82;101416.91;5054215;28;20225;-67
2023/09/28 08:25:31;;;;;;;7.97;6.10;;;;;;;19.22;74.99;101414.56;5053871;28;20188;-67
2023/09/28 08:27:58;;;;;;;16.03;7.00;;;;;;;19.12;73.02;101414.88;5054078;28;20735;-67
2023/09/28 08:30:25;;;;;;;8.90;6.73;;;;;;;19.09;72.95;101419.84;5053717;28;20214;-67
2023/09/28 08:32:53;;;;;;;12.47;6.30;;;;;;;19.06;73.70;101420.19;5053775;28;20678;-67
2023/09/28 08:35:20;;;;;;;10.23;5.73;;;;;;;19.10;72.28;101424.19;5053693;28;20198;-67
2023/09/28 08:37:47;;;;;;;12.87;4.90;;;;;;;19.08;72.11;101419.00;5053853;28;20207;-67
2023/09/28 08:40:13;;;;;;;7.67;5.47;;;;;;;19.12;71.60;101425.72;5054051;28;20245;-67
2023/09/28 08:42:43;;;;;;;6.70;5.23;;;;;;;19.18;72.04;101429.50;5053411;28;20191;-67
2023/09/28 08:45:14;;;;;;;6.13;5.53;;;;;;;19.26;72.64;101440.28;5054069;28;20267;-67
2023/09/28 08:47:47;;;;;;;10.07;5.47;;;;;;;19.37;72.62;101452.47;5053770;28;20222;-67
2023/09/28 08:50:19;;;;;;;6.63;5.07;;;;;;;19.34;72.45;101455.56;5053681;28;20179;-67
2023/09/28 08:52:45;;;;;;;14.90;5.50;;;;;;;19.55;71.43;101461.06;5053729;28;20215;-67
2023/09/28 08:55:12;;;;;;;5.53;5.13;;;;;;;19.52;72.35;101461.44;5053288;28;20209;-67
2023/09/28 08:57:41;;;;;;;5.00;4.63;;;;;;;19.41;72.38;101462.75;5053543;28;20558;-67
2023/09/28 09:00:13;;;;;;;5.43;4.90;;;;;;;19.47;72.32;101467.44;5053530;28;20609;-67
2023/09/28 09:02:42;;;;;;;9.83;4.80;;;;;;;19.60;71.46;101462.16;5053657;28;20210;-67
2023/09/28 09:05:13;;;;;;;18.03;5.57;;;;;;;19.57;72.07;101467.13;5053209;28;20209;-67
2023/09/28 09:07:43;;;;;;;4.77;4.37;;;;;;;19.50;72.11;101474.34;5054011;28;20225;-67
2023/09/28 09:10:18;;;;;;;9.17;5.17;;;;;;;19.46;71.79;101473.91;5053128;28;20190;-67
2023/09/28 09:12:44;;;;;;;5.37;5.00;;;;;;;19.52;72.17;101472.28;5053754;28;20270;-66
2023/09/28 09:15:13;;;;;;;7.93;5.57;;;;;;;19.45;73.10;101477.63;5053198;28;20191;-66
2023/09/28 09:17:39;;;;;;;15.87;5.20;;;;;;;19.60;74.11;101473.00;5052695;28;20203;-66
2023/09/28 09:20:08;;;;;;;17.03;5.20;;;;;;;19.57;73.52;101465.25;5052966;28;20270;-67
2023/09/28 09:22:36;;;;;;;6.73;4.90;;;;;;;19.58;75.08;101464.22;5052951;28;20183;-67
2023/09/28 09:25:20;;;;;;;14.17;5.97;;;;;;;19.58;72.82;101469.66;5053036;28;20167;-67
2023/09/28 09:27:48;;;;;;;10.77;5.93;;;;;;;19.65;73.35;101467.00;5053247;28;20187;-67
2023/09/28 09:30:15;;;;;;;8.17;5.07;;;;;;;19.71;72.07;101458.09;5053097;28;20186;-67
2023/09/28 09:32:46;;;;;;;7.77;4.87;;;;;;;19.71;71.78;101473.53;5053403;28;20187;-67
2023/09/28 09:35:13;;;;;;;10.60;5.27;;;;;;;19.84;73.94;101481.81;5053411;28;20175;-67
2023/09/28 09:37:44;;;;;;;6.23;5.27;;;;;;;19.75;73.36;101466.69;5053339;28;20218;-67
2023/09/28 09:40:15;;;;;;;7.27;5.37;;;;;;;19.76;71.45;101471.09;5053137;28;20513;-67
2023/09/28 09:42:41;;;;;;;12.03;5.00;;;;;;;19.65;72.01;101485.16;5053418;28;20623;-67
2023/09/28 09:45:11;;;;;;;8.27;4.73;;;;;;;19.74;71.42;101479.41;5053022;28;20582;-67
2023/09/28 09:47:47;;;;;;;8.00;4.90;;;;;;;19.68;72.34;101490.19;5053320;28;20180;-66
2023/09/28 09:50:14;;;;;;;12.87;5.37;;;;;;;19.72;72.10;101476.06;5053022;28;20183;-67
2023/09/28 09:52:43;;;;;;;5.20;4.90;;;;;;;19.82;70.58;101482.00;5052702;28;20218;-67
2023/09/28 09:55:10;;;;;;;7.93;4.87;;;;;;;19.73;70.54;101480.44;5052705;28;20191;-67
2023/09/28 09:57:37;;;;;;;4.97;4.43;;;;;;;19.82;72.09;101482.00;5052907;28;20545;-67
2023/09/28 10:00:08;;;;;;;5.63;4.57;;;;;;;19.92;70.48;101484.38;5052806;28;20729;-68
2023/09/28 10:02:42;;;;;;;7.47;4.70;;;;;;;19.83;70.33;101480.13;5052888;28;20187;-67
2023/09/28 10:05:10;;;;;;;5.00;4.70;;;;;;;19.85;71.04;101481.63;5052874;28;20213;-66
2023/09/28 10:07:37;;;;;;;5.07;3.93;;;;;;;19.85;69.48;101487.06;5053180;28;20179;-66
2023/09/28 10:10:07;;;;;;;4.70;3.93;;;;;;;19.95;69.11;101482.13;5052568;28;20168;-67
2023/09/28 10:12:34;;;;;;;7.43;3.90;;;;;;;20.00;69.03;101482.38;5053048;28;20535;-67
2023/09/28 10:15:01;;;;;;;9.60;4.37;;;;;;;19.96;69.21;101475.66;5052983;28;20617;-67
2023/09/28 10:17:29;;;;;;;6.67;4.90;;;;;;;19.97;68.97;101471.94;5052481;28;20675;-67
2023/09/28 10:19:59;;;;;;;9.80;5.03;;;;;;;20.01;69.09;101472.38;5052476;28;20187;-67
2023/09/28 10:22:26;;;;;;;8.23;4.97;;;;;;;20.00;68.39;101468.81;5052649;28;20261;-67
2023/09/28 10:24:53;;;;;;;4.87;4.47;;;;;;;19.97;69.31;101465.66;5052448;28;20233;-67
2023/09/28 10:27:19;;;;;;;5.57;5.27;;;;;;;20.02;68.78;101477.63;5052457;28;20179;-67
2023/09/28 10:29:46;;;;;;;5.13;4.80;;;;;;;20.00;69.44;101484.25;5053269;28;20229;-67
2023/09/28 10:32:27;;;;;;;12.60;5.40;;;;;;;19.98;68.66;101495.31;5055965;28;20273;-67
2023/09/28 10:35:16;;;;;;;6.93;5.30;;;;;;;20.02;69.93;101484.91;5056300;28;20222;-67
2023/09/28 10:38:02;;;;;;;7.03;5.10;;;;;;;20.16;70.35;101483.13;5056069;28;20243;-67
2023/09/28 10:40:29;;;;;;;5.57;5.00;;;;;;;20.31;70.59;101486.66;5055699;28;20207;-67
2023/09/28 10:43:29;;;;;;;17.83;6.87;;;;;;;20.53;68.73;101485.56;5055906;28;20175;-67
2023/09/28 10:46:03;;;;;;;12.53;6.03;;;;;;;20.41;68.34;101487.16;5056138;28;20240;-67
2023/09/28 10:48:46;;;;;;;15.30;6.20;;;;;;;20.36;68.66;101467.91;5055517;28;20187;-67
2023/09/28 10:51:18;;;;;;;6.57;5.93;;;;;;;20.27;68.92;101474.47;5055904;28;20199;-67
2023/09/28 10:53:45;;;;;;;12.83;5.87;;;;;;;20.29;68.62;101472.38;5055946;28;20187;-67
2023/09/28 10:56:12;;;;;;;10.13;6.80;;;;;;;20.14;68.46;101480.63;5055571;28;20183;-67
2023/09/28 10:58:43;;;;;;;7.37;6.63;;;;;;;20.11;69.03;101482.91;5055767;28;20196;-67
2023/09/28 11:01:10;;;;;;;8.27;7.53;;;;;;;20.08;69.54;101490.38;5055473;28;20199;-67
2023/09/28 11:03:36;;;;;;;10.30;6.90;;;;;;;20.14;70.59;101487.94;5055778;28;20182;-67
2023/09/28 11:06:04;;;;;;;17.03;6.07;;;;;;;20.13;68.98;101486.25;5055365;28;20187;-67
2023/09/28 11:08:31;;;;;;;6.03;5.60;;;;;;;20.19;69.98;101480.91;5055303;28;20233;-66
2023/09/28 11:11:01;;;;;;;9.57;8.70;;;;;;;20.26;68.96;101472.78;5055245;28;20757;-67
2023/09/28 11:13:29;;;;;;;12.53;8.90;;;;;;;20.27;70.00;101475.31;5055279;28;20221;-67
2023/09/28 11:15:55;;;;;;;10.33;9.43;;;;;;;20.22;69.83;101469.63;5055835;28;20179;-67
2023/09/28 11:18:26;;;;;;;10.03;9.33;;;;;;;20.20;69.62;101468.16;5055091;28;20211;-67
2023/09/28 11:20:58;;;;;;;15.10;10.73;;;;;;;20.18;69.75;101472.94;5055037;28;20218;-67
2023/09/28 11:23:24;;;;;;;21.20;10.53;;;;;;;20.15;71.18;101457.03;5055640;28;20191;-67
2023/09/28 11:25:52;;;;;;;9.73;8.87;;;;;;;20.21;70.83;101469.81;5055016;28;20198;-67
2023/09/28 11:28:19;;;;;;;13.70;9.20;;;;;;;20.29;70.37;101465.13;5054958;28;20179;-67
2023/09/28 11:31:02;;;;;;;11.53;8.80;;;;;;;20.26;71.44;101465.47;5055166;28;20611;-67
2023/09/28 11:33:29;;;;;;;9.73;6.93;;;;;;;20.24;71.67;101467.53;5054924;28;20592;-66